Nearby METAR Reports

 

KAVP - Avoca/Wilkes B., Pennsylvania, USA
Distance from station: NE 13mi, 20km
Updated: Thu, 22-Oct-2020 9:54pm PDT
Clear
Clear
 Wind from calm
Wind: Calm
Temperature: 63°F , 17°C
Dew Point: 61°F , 16°C
Humidity: 94%
Barometer: 30.19 inHg , 1022.4 hPa
Clouds: Clear
Visibility: 7 miles , 11 km
2020/10/23 04:54 KAVP 230454Z 00000KT 7SM CLR 17/16 A3019 RMK AO2 SLP215 T01720156 402830156
KMPO - Mt. Pocono, Pennsylvania, USA
Distance from station: ESE 28mi, 45km
Updated: Thu, 22-Oct-2020 10:18pm PDT
Mist, Overcast
Mist, Overcast
 Wind from S
Wind: S 8 mph , 13 km/h
Temperature: 61°F , 16°C
Dew Point: 61°F , 16°C
Humidity: 100%
Barometer: 30.23 inHg , 1023.7 hPa
Summary: Mist
Clouds: Overcast
Visibility: 4 miles , 6 km
Cloud details: Overcast 200 ft
2020/10/23 05:18 KMPO 230518Z AUTO 18007KT 4SM BR OVC002 16/16 A3023 RMK AO2 T01610161
 
KABE - Allentown, Pennsylvania, USA
Distance from station: SSE 46mi, 74km
Updated: Thu, 22-Oct-2020 9:51pm PDT
Mist, Mostly cloudy
Mist, Mostly cloudy
 Wind from ESE
Wind: ESE 3 mph , 6 km/h
Temperature: 64°F , 18°C
Dew Point: 63°F , 17°C
Humidity: 94%
Barometer: 30.20 inHg , 1022.7 hPa
Summary: Mist
Clouds: Mostly Cloudy
Visibility: 5 miles , 8 km
Cloud details: Mostly Cloudy 500 ft
2020/10/23 04:51 KABE 230451Z 12003KT 5SM BR BKN005 18/17 A3020 RMK AO2 SLP225 T01830172 402170150
KXLL - Allentown Queen, Pennsylvania, USA
Distance from station: SSE 50mi, 81km
Updated: Thu, 22-Oct-2020 10:15pm PDT
Mist, Overcast
Mist, Overcast
 Wind from calm
Wind: Calm
Temperature: 63°F , 17°C
Dew Point: 63°F , 17°C
Humidity: 100%
Barometer: 30.21 inHg , 1023 hPa
Summary: Mist
Clouds: Overcast
Visibility: 1 3/4 miles , 2.8 km
Cloud details: Overcast 700 ft
2020/10/23 05:15 KXLL 230515Z AUTO 00000KT 1 3/4SM BR VV007 17/17 A3021 RMK AO2
 
KIPT - Williamsport, Pennsylvania, USA
Distance from station: W 52mi, 84km
Updated: Thu, 22-Oct-2020 10:22pm PDT
Mostly Cloudy
Mostly Cloudy
 Wind from ENE
Wind: ENE 8 mph , 13 km/h
Temperature: 64°F , 18°C
Dew Point: 61°F , 16°C
Humidity: 88%
Barometer: 30.15 inHg , 1021 hPa
Clouds: Mostly Cloudy
Visibility: 10 miles , 16 km
Cloud details: Few Clouds 1600 ft
Mostly Cloudy 2300 ft
2020/10/23 05:22 KIPT 230522Z AUTO 06007KT 10SM FEW016 BKN023 18/16 A3015 RMK AO2 T01830156
KSEG - Selinsgrove, Pennsylvania, USA
Distance from station: WSW 57mi, 92km
Updated: Thu, 22-Oct-2020 10:23pm PDT
Mist, Clear
Mist, Clear
 Wind from calm
Wind: Calm
Temperature: 52°F , 11°C
Dew Point: 52°F , 11°C
Humidity: 100%
Barometer: 30.17 inHg , 1021.7 hPa
Summary: Mist
Clouds: Clear
Visibility: 3/4 mile , 1.2 km
2020/10/23 05:23 KSEG 230523Z AUTO 00000KT 3/4SM BR CLR 11/11 A3017 RMK AO2 VIS 1/4V2 1/2 T01110111
 
KRDG - Reading, Pennsylvania, USA
Distance from station: S 59mi, 95km
Updated: Thu, 22-Oct-2020 10:31pm PDT
Mist, Partly cloudy
Mist, Partly cloudy
 Wind from SSW
Wind: SSW 6 mph , 9 km/h
Temperature: 61°F , 16°C
Dew Point: 61°F , 16°C
Humidity: 100%
Barometer: 30.18 inHg , 1022 hPa
Summary: Mist
Clouds: Partly Cloudy
Visibility: 1 3/4 miles , 2.8 km
Cloud details: Partly Cloudy 400 ft
2020/10/23 05:31 KRDG 230531Z AUTO 21005KT 1 3/4SM R36/3000VP6000FT BR SCT004 16/16 A3018 RMK AO2 T01610161
KUKT - Quakertown Arp, Pennsylvania, USA
Distance from station: SSE 61mi, 98km
Updated: Thu, 22-Oct-2020 10:35pm PDT
Mist, Overcast
Mist, Overcast
 Wind from calm
Wind: Calm
Temperature: 64°F , 18°C
Dew Point: 64°F , 18°C
Humidity: 100%
Barometer: 30.21 inHg , 1023 hPa
Summary: Mist
Clouds: Overcast
Visibility: 1 1/2 miles , 2.4 km
Cloud details: Overcast 200 ft
2020/10/23 05:35 KUKT 230535Z AUTO 00000KT 1 1/2SM BR OVC002 18/18 A3021 RMK A01
 
K12N - Andover, New Jersey, USA
Distance from station: ESE 63mi, 101km
Updated: Thu, 22-Oct-2020 9:54pm PDT

 Wind from calm
Wind: Calm
Temperature: 66°F , 19°C
Dew Point: 64°F , 18°C
Humidity: 94%
Barometer: 30.21 inHg , 1023 hPa
2020/10/23 04:54 K12N 230454Z AUTO 00000KT 19/18 A3021 RMK AO1 SLP227 T01890178 402060161
KMUI - Muir Aaf/Indiant, Pennsylvania, USA
Distance from station: SSW 65mi, 105km
Updated: Thu, 22-Oct-2020 10:12pm PDT
Fog, Overcast
Fog, Overcast
 Wind from ENE
Wind: ENE 5 mph , 7 km/h
Temperature: 63°F , 17°C
Dew Point: 63°F , 17°C
Humidity: 100%
Barometer: 30.19 inHg , 1022.4 hPa
Summary: Fog
Clouds: Overcast
Visibility: 1/2 mile , 0.8 km
Cloud details: Overcast 100 ft
2020/10/23 05:12 KMUI 230512Z AUTO 06004KT 1/2SM FG VV001 17/17 A3019 RMK AO2 SLP225 RVRNO $
 
KFWN - Sussex, New Jersey, USA
Distance from station: E 66mi, 107km
Updated: Thu, 22-Oct-2020 9:53pm PDT
Overcast
Overcast
 Wind from calm
Wind: Calm
Temperature: 64°F , 18°C
Dew Point: 63°F , 17°C
Humidity: 94%
Barometer: 30.22 inHg , 1023.4 hPa
Clouds: Overcast
Visibility: 7 miles , 11 km
Cloud details: Overcast 1700 ft
2020/10/23 04:53 KFWN 230453Z AUTO 00000KT 7SM OVC017 18/17 A3022 RMK AO2 SLP231 T01780167 402170161
KMSV - Monticello, New York, USA
Distance from station: ENE 67mi, 108km
Updated: Thu, 22-Oct-2020 9:56pm PDT
Mist, Overcast
Mist, Overcast
 Wind from calm
Wind: Calm
Temperature: 61°F , 16°C
Dew Point: 61°F , 16°C
Humidity: 100%
Barometer: 30.23 inHg , 1023.7 hPa
Summary: Mist
Clouds: Overcast
Visibility: 5 miles , 8 km
Cloud details: Overcast 700 ft
2020/10/23 04:56 KMSV 230456Z AUTO 00000KT 5SM BR OVC007 16/16 A3023 RMK AO2 CIG 006V010 SLP236 T01610156 402280111
 
KBGM - Binghamton, New York, USA
Distance from station: N 69mi, 111km
Updated: Thu, 22-Oct-2020 9:53pm PDT
Clear
Clear
 Wind from S
Wind: S 5 mph , 7 km/h
Temperature: 61°F , 16°C
Dew Point: 55°F , 13°C
Humidity: 83%
Barometer: 30.17 inHg , 1021.7 hPa
Clouds: Clear
Visibility: 10 miles , 16 km
2020/10/23 04:53 KBGM 230453Z AUTO 17004KT 10SM CLR 16/13 A3017 RMK AO2 SLP210 T01560133 402280122
KPTW - Pottstown, Pennsylvania, USA
Distance from station: SSE 71mi, 114km
Updated: Thu, 22-Oct-2020 10:10pm PDT
Fog, Overcast
Fog, Overcast
 Wind from calm
Wind: Calm
Temperature: 57°F , 14°C
Dew Point: 57°F , 14°C
Humidity: 100%
Barometer: 30.22 inHg , 1023.4 hPa
Summary: Fog
Clouds: Overcast
Visibility: 1/4 mile , 0.4 km
Cloud details: Overcast 100 ft
2020/10/23 05:10 KPTW 230510Z AUTO 00000KT 1/4SM FG VV001 14/14 A3022 RMK AO2 T01390139
 
KDYL - Doylestown, Pennsylvania, USA
Distance from station: SE 74mi, 119km
Updated: Thu, 22-Oct-2020 10:21pm PDT
Mist, Overcast
Mist, Overcast
 Wind from calm
Wind: Calm
Temperature: 64°F , 18°C
Dew Point: 63°F , 17°C
Humidity: 94%
Barometer: 30.20 inHg , 1022.7 hPa
Summary: Mist
Clouds: Overcast
Visibility: 4 miles , 6 km
Cloud details: Overcast 200 ft
2020/10/23 05:21 KDYL 230521Z AUTO 00000KT 4SM BR OVC002 18/17 A3020 RMK AO2 T01780172
KSMQ - Somerville, New Jersey, USA
Distance from station: ESE 77mi, 124km
Updated: Thu, 22-Oct-2020 9:53pm PDT
Mist, Overcast
Mist, Overcast
 Wind from SSE
Wind: SSE 3 mph , 6 km/h
Temperature: 64°F , 18°C
Dew Point: 64°F , 18°C
Humidity: 100%
Barometer: 30.20 inHg , 1022.7 hPa
Summary: Mist
Clouds: Overcast
Visibility: 4 miles , 6 km
Cloud details: Overcast 600 ft
2020/10/23 04:53 KSMQ 230453Z AUTO 16003KT 4SM BR OVC006 18/18 A3020 RMK AO2 SLP224 T01830178 402170150
 
KLNS - Lancaster, Pennsylvania, USA
Distance from station: SSW 79mi, 127km
Updated: Thu, 22-Oct-2020 9:53pm PDT
Fog, Overcast
Fog, Overcast
 Wind from E
Wind: E 5 mph , 7 km/h
Temperature: 57°F , 14°C
Dew Point: 55°F , 13°C
Humidity: 94%
Barometer: 30.19 inHg , 1022.4 hPa
Summary: Fog
Clouds: Overcast
Visibility: 1/4 mile , 0.4 km
Cloud details: Overcast 300 ft
2020/10/23 04:53 KLNS 230453Z AUTO 08004KT 1/4SM FG VV003 14/13 A3019 RMK AO2 SLP223 T01440133 402440144
KELM - Elmira, New York, USA
Distance from station: NW 82mi, 132km
Updated: Thu, 22-Oct-2020 10:36pm PDT
Mist, Overcast
Mist, Overcast
 Wind from calm
Wind: Calm
Temperature: 52°F , 11°C
Dew Point: 52°F , 11°C
Humidity: 100%
Barometer: 30.14 inHg , 1020.7 hPa
Summary: Mist
Clouds: Overcast
Visibility: 1 1/4 miles , 2 km
Cloud details: Overcast 200 ft
2020/10/23 05:36 KELM 230536Z AUTO 00000KT 1 1/4SM R24/0400V0800FT BR OVC002 11/11 A3014 RMK AO2 T01110111
 
KLOM - Philly Wings F, Pennsylvania, USA
Distance from station: SSE 82mi, 132km
Updated: Thu, 22-Oct-2020 10:15pm PDT
Mist, Overcast
Mist, Overcast
 Wind from calm
Wind: Calm
Temperature: 55°F , 13°C
Barometer: 30.22 inHg , 1023.4 hPa
Summary: Mist
Clouds: Overcast
Visibility: 3/4 mile , 1.2 km
Cloud details: Overcast 300 ft
2020/10/23 05:15 KLOM 230515Z AUTO 00000KT 3/4SM BR OVC003 13/ A3022 RMK AO2 T0128////
KMMU - Morristown Muni, New Jersey, USA
Distance from station: ESE 83mi, 134km
Updated: Thu, 22-Oct-2020 10:15pm PDT
Mist, Overcast
Mist, Overcast
 Wind from calm
Wind: Calm
Temperature: 64°F , 18°C
Dew Point: 64°F , 18°C
Humidity: 100%
Barometer: 30.21 inHg , 1023 hPa
Summary: Mist
Clouds: Overcast
Visibility: 4 miles , 6 km
Cloud details: Overcast 400 ft
2020/10/23 05:15 KMMU 230515Z AUTO 00000KT 4SM BR OVC004 18/18 A3021 RMK AO2

Metar display script from Saratoga-Weather.org